createdAt,value
2018-01-26T00:02:02.437Z,14.67
2018-01-26T00:04:30.171Z,15.00
2018-01-26T00:06:57.958Z,13.80
2018-01-26T00:09:25.662Z,16.03
2018-01-26T00:11:53.424Z,16.37
2018-01-26T00:14:21.149Z,18.10
2018-01-26T00:16:48.872Z,16.10
2018-01-26T00:19:16.654Z,19.80
2018-01-26T00:21:44.374Z,17.20
2018-01-26T00:24:12.108Z,17.80
2018-01-26T00:26:39.875Z,18.53
2018-01-26T00:29:07.996Z,16.93
2018-01-26T00:31:35.751Z,16.13
2018-01-26T00:34:03.509Z,17.10
2018-01-26T00:36:31.252Z,17.40
2018-01-26T00:38:58.952Z,17.70
2018-01-26T00:41:26.727Z,16.20
2018-01-26T00:43:54.463Z,16.80
2018-01-26T00:46:22.185Z,18.43
2018-01-26T00:48:49.926Z,18.23
2018-01-26T00:51:17.652Z,15.80
2018-01-26T00:53:45.348Z,18.10
2018-01-26T00:56:13.091Z,18.10
2018-01-26T00:58:40.779Z,17.30
2018-01-26T01:01:08.482Z,17.57
2018-01-26T01:03:36.222Z,17.10
2018-01-26T01:06:03.888Z,17.20
2018-01-26T01:08:31.899Z,15.93
2018-01-26T01:10:59.672Z,17.00
2018-01-26T01:13:27.361Z,17.07
2018-01-26T01:15:55.073Z,17.00
2018-01-26T01:18:22.763Z,16.57
2018-01-26T01:20:50.436Z,16.27
2018-01-26T01:23:18.201Z,16.70
2018-01-26T01:25:45.963Z,17.77
2018-01-26T01:28:13.678Z,17.10
2018-01-26T01:30:41.429Z,18.20
2018-01-26T01:33:09.163Z,17.30
2018-01-26T01:35:36.926Z,17.80
2018-01-26T01:38:04.680Z,17.40
2018-01-26T01:40:32.407Z,17.07
2018-01-26T01:43:00.143Z,17.17
2018-01-26T01:45:27.915Z,17.40
2018-01-26T01:47:55.728Z,16.77
2018-01-26T01:50:23.419Z,16.13
2018-01-26T01:52:51.178Z,17.07
2018-01-26T01:55:18.984Z,17.20
2018-01-26T01:57:46.703Z,18.97
2018-01-26T02:00:14.383Z,16.40
2018-01-26T02:02:42.382Z,16.97
2018-01-26T02:05:10.681Z,16.40
2018-01-26T02:07:38.369Z,15.77
2018-01-26T02:10:06.078Z,17.10
2018-01-26T02:12:34.520Z,15.00
2018-01-26T02:15:02.468Z,16.03
2018-01-26T02:17:30.670Z,15.87
2018-01-26T02:19:58.391Z,18.47
2018-01-26T02:22:26.120Z,17.10
2018-01-26T02:24:54.142Z,16.00
2018-01-26T02:27:21.896Z,15.90
2018-01-26T02:29:49.583Z,15.10
2018-01-26T02:32:17.429Z,13.70
2018-01-26T02:34:45.203Z,15.97
2018-01-26T02:37:12.967Z,14.97
2018-01-26T02:39:40.711Z,14.93
2018-01-26T02:42:08.427Z,14.90
2018-01-26T02:44:36.150Z,15.77
2018-01-26T02:47:04.160Z,16.63
2018-01-26T02:49:31.841Z,14.77
2018-01-26T02:52:00.201Z,15.57
2018-01-26T02:54:27.955Z,14.37
2018-01-26T02:56:55.658Z,15.97
2018-01-26T02:59:23.357Z,18.43
2018-01-26T03:01:51.134Z,16.73
2018-01-26T03:04:18.863Z,18.10
2018-01-26T03:06:46.881Z,18.30
2018-01-26T03:09:14.640Z,15.20
2018-01-26T03:11:42.365Z,17.47
2018-01-26T03:14:10.163Z,18.73
2018-01-26T03:16:37.924Z,18.80
2018-01-26T03:19:05.620Z,18.13
2018-01-26T03:21:33.350Z,18.40
2018-01-26T03:24:01.129Z,19.67
2018-01-26T03:26:28.842Z,18.93
2018-01-26T03:28:56.871Z,19.30
2018-01-26T03:31:24.621Z,18.80
2018-01-26T03:33:52.315Z,19.63
2018-01-26T03:36:20.069Z,18.67
2018-01-26T03:38:47.834Z,19.20
2018-01-26T03:41:15.781Z,20.13
2018-01-26T03:43:43.869Z,18.57
2018-01-26T03:46:12.174Z,16.60
2018-01-26T03:48:39.899Z,17.33
2018-01-26T03:51:07.600Z,18.17
2018-01-26T03:53:35.367Z,18.40
2018-01-26T03:56:03.049Z,16.80
2018-01-26T03:58:30.816Z,16.40
2018-01-26T04:00:58.572Z,18.33
2018-01-26T04:03:26.301Z,18.63
2018-01-26T04:05:54.143Z,17.50
2018-01-26T04:08:21.800Z,16.27
2018-01-26T04:10:49.569Z,17.67
2018-01-26T04:13:17.515Z,18.37
2018-01-26T04:15:45.247Z,16.10
2018-01-26T04:18:13.009Z,16.43
2018-01-26T04:20:40.730Z,18.53
2018-01-26T04:23:08.451Z,18.63
2018-01-26T04:25:36.175Z,20.83
2018-01-26T04:28:03.956Z,18.70
2018-01-26T04:30:31.704Z,21.23
2018-01-26T04:32:59.747Z,19.13
2018-01-26T04:35:27.479Z,18.53
2018-01-26T04:37:55.192Z,17.73
2018-01-26T04:40:22.937Z,16.93
2018-01-26T04:42:50.680Z,16.80
2018-01-26T04:45:18.334Z,18.33
2018-01-26T04:47:46.023Z,18.50
2018-01-26T04:50:13.740Z,17.87
2018-01-26T04:52:41.682Z,20.87
2018-01-26T04:55:09.434Z,20.00
2018-01-26T04:57:37.144Z,19.97
2018-01-26T05:00:04.886Z,18.80
2018-01-26T05:02:32.678Z,19.17
2018-01-26T05:05:00.377Z,16.50
2018-01-26T05:07:28.082Z,18.50
2018-01-26T05:09:55.815Z,17.50
2018-01-26T05:12:23.537Z,17.87
2018-01-26T05:14:51.676Z,25.23
2018-01-26T05:17:19.415Z,33.70
2018-01-26T05:19:47.168Z,23.20
2018-01-26T05:22:14.863Z,31.80
2018-01-26T05:24:42.887Z,33.63
2018-01-26T05:27:10.612Z,29.30
2018-01-26T05:29:38.394Z,33.03
2018-01-26T05:32:06.538Z,23.90
2018-01-26T05:34:34.241Z,21.17
2018-01-26T05:37:01.925Z,25.10
2018-01-26T05:39:30.037Z,20.90
2018-01-26T05:41:57.702Z,24.33
2018-01-26T05:44:25.430Z,22.00
2018-01-26T05:46:53.469Z,19.77
2018-01-26T05:49:21.142Z,21.27
2018-01-26T05:51:48.855Z,20.50
2018-01-26T05:54:16.926Z,19.30
2018-01-26T05:56:44.647Z,18.40
2018-01-26T05:59:12.363Z,17.67
2018-01-26T06:01:40.080Z,20.80
2018-01-26T06:04:08.190Z,29.30
2018-01-26T06:06:35.991Z,25.87
2018-01-26T06:09:03.805Z,30.33
2018-01-26T06:11:31.505Z,34.13
2018-01-26T06:13:59.202Z,23.60
2018-01-26T06:16:26.887Z,24.63
2018-01-26T06:18:54.892Z,24.37
2018-01-26T06:21:22.605Z,23.40
2018-01-26T06:23:50.352Z,22.17
2018-01-26T06:26:18.135Z,25.40
2018-01-26T06:28:45.877Z,29.70
2018-01-26T06:31:13.646Z,29.23
2018-01-26T06:33:41.677Z,26.03
2018-01-26T06:36:09.716Z,27.70
2018-01-26T06:38:37.418Z,25.90
2018-01-26T06:41:05.077Z,31.00
2018-01-26T06:43:32.797Z,23.60
2018-01-26T06:46:00.537Z,26.43
2018-01-26T06:48:28.673Z,31.13
2018-01-26T06:50:56.425Z,27.70
2018-01-26T06:53:24.129Z,29.43
2018-01-26T06:55:51.810Z,28.00
2018-01-26T06:58:19.624Z,27.27
2018-01-26T07:00:47.394Z,28.63
2018-01-26T07:03:15.339Z,28.20
2018-01-26T07:05:43.077Z,27.30
2018-01-26T07:08:10.727Z,26.87
2018-01-26T07:10:38.439Z,32.10
2018-01-26T07:13:06.172Z,26.00
2018-01-26T07:15:34.192Z,26.53
2018-01-26T07:18:01.928Z,33.17
2018-01-26T07:20:30.135Z,31.30
2018-01-26T07:22:57.867Z,33.67
2018-01-26T07:25:25.616Z,32.70
2018-01-26T07:27:53.343Z,34.70
2018-01-26T07:30:21.082Z,41.47
2018-01-26T07:32:48.865Z,54.63
2018-01-26T07:35:16.556Z,39.03
2018-01-26T07:37:44.275Z,36.47
2018-01-26T07:40:12.003Z,34.40
2018-01-26T07:42:39.695Z,39.27
2018-01-26T07:45:09.415Z,34.10
2018-01-26T07:47:37.107Z,35.37
2018-01-26T07:50:10.359Z,36.50
2018-01-26T07:52:38.029Z,38.27
2018-01-26T07:55:05.761Z,40.80
2018-01-26T07:57:33.874Z,38.77
2018-01-26T08:00:01.586Z,37.23
2018-01-26T08:02:29.381Z,41.30
2018-01-26T08:04:57.052Z,34.20
2018-01-26T08:07:24.847Z,42.67
2018-01-26T08:09:52.524Z,38.70
2018-01-26T08:12:20.235Z,37.23
2018-01-26T08:14:47.956Z,38.50
2018-01-26T08:17:15.667Z,41.40
2018-01-26T08:19:43.395Z,33.90
2018-01-26T08:22:11.414Z,37.57
2018-01-26T08:24:39.156Z,34.50
2018-01-26T08:27:06.921Z,41.40
2018-01-26T08:29:34.610Z,32.80
2018-01-26T08:32:02.686Z,36.13
2018-01-26T08:34:30.967Z,35.60
2018-01-26T08:36:59.045Z,37.60
2018-01-26T08:39:26.802Z,33.00
2018-01-26T08:41:54.475Z,30.63
2018-01-26T08:44:22.162Z,32.03
2018-01-26T08:46:50.192Z,36.10
2018-01-26T08:49:17.860Z,34.73
2018-01-26T08:51:45.476Z,33.37
2018-01-26T08:54:13.454Z,34.70
2018-01-26T08:56:41.460Z,35.00
2018-01-26T08:59:09.134Z,36.93
2018-01-26T09:01:36.857Z,32.17
2018-01-26T09:04:04.668Z,39.17
2018-01-26T09:06:32.379Z,36.67
2018-01-26T09:09:00.056Z,31.20
2018-01-26T09:11:27.777Z,31.83
2018-01-26T09:13:55.505Z,33.10
2018-01-26T09:16:23.222Z,34.57
2018-01-26T09:18:50.931Z,32.90
2018-01-26T09:21:18.710Z,34.30
2018-01-26T09:23:46.675Z,31.17
2018-01-26T09:26:14.457Z,29.70
2018-01-26T09:28:42.150Z,35.57
2018-01-26T09:31:09.876Z,32.37
2018-01-26T09:33:37.623Z,33.60
2018-01-26T09:36:05.263Z,36.40
2018-01-26T09:38:33.181Z,31.47
2018-01-26T09:41:00.861Z,30.43
2018-01-26T09:43:28.994Z,38.80
2018-01-26T09:45:56.725Z,34.77
2018-01-26T09:48:24.402Z,34.47
2018-01-26T09:50:52.097Z,38.70
2018-01-26T09:53:19.787Z,36.57
2018-01-26T09:55:47.497Z,35.03
2018-01-26T09:58:15.195Z,33.13
2018-01-26T10:00:42.948Z,34.00
2018-01-26T10:03:10.592Z,32.73
2018-01-26T10:05:38.306Z,34.07
2018-01-26T10:08:05.992Z,31.97
2018-01-26T10:10:33.623Z,35.40
2018-01-26T10:13:01.351Z,31.77
2018-01-26T10:15:29.416Z,31.90
2018-01-26T10:17:57.083Z,32.97
2018-01-26T10:20:25.057Z,35.00
2018-01-26T10:22:52.815Z,36.90
2018-01-26T10:25:20.499Z,39.10
2018-01-26T10:27:48.205Z,36.70
2018-01-26T10:30:15.940Z,37.00
2018-01-26T10:32:43.590Z,33.50
2018-01-26T10:35:11.836Z,34.77
2018-01-26T10:37:39.910Z,31.23
2018-01-26T10:40:07.985Z,32.90
2018-01-26T10:42:36.351Z,30.97
2018-01-26T10:45:04.081Z,31.07
2018-01-26T10:47:31.789Z,32.23
2018-01-26T10:49:59.587Z,32.20
2018-01-26T10:52:27.319Z,32.33
2018-01-26T10:54:55.040Z,30.57
2018-01-26T10:57:22.993Z,32.07
2018-01-26T10:59:50.773Z,36.50
2018-01-26T11:02:18.497Z,34.37
2018-01-26T11:04:46.288Z,33.17
2018-01-26T11:07:13.974Z,31.23
2018-01-26T11:09:41.722Z,34.67
2018-01-26T11:12:09.447Z,29.37
2018-01-26T11:14:37.113Z,31.80
2018-01-26T11:17:05.633Z,29.70
2018-01-26T11:19:33.413Z,29.00
2018-01-26T11:22:01.033Z,29.60
2018-01-26T11:24:28.712Z,26.87
2018-01-26T11:26:56.547Z,29.30
2018-01-26T11:29:24.213Z,28.27
2018-01-26T11:31:51.833Z,30.50
2018-01-26T11:34:19.614Z,31.10
2018-01-26T11:36:47.309Z,29.60
2018-01-26T11:39:14.933Z,29.90
2018-01-26T11:41:42.580Z,30.90
2018-01-26T11:44:10.272Z,30.97
2018-01-26T11:46:37.939Z,32.00
2018-01-26T11:49:05.606Z,31.80
2018-01-26T11:51:33.251Z,30.70
2018-01-26T11:54:00.887Z,32.63
2018-01-26T11:56:28.533Z,30.60
2018-01-26T11:58:56.174Z,33.37
2018-01-26T12:01:24.323Z,31.47
2018-01-26T12:03:52.031Z,30.90
2018-01-26T12:06:19.746Z,30.03
2018-01-26T12:08:47.719Z,31.47
2018-01-26T12:11:15.680Z,30.17
2018-01-26T12:13:43.386Z,27.27
2018-01-26T12:16:11.001Z,29.10
2018-01-26T12:18:38.698Z,28.23
2018-01-26T12:21:06.954Z,27.40
2018-01-26T12:23:34.596Z,23.63
2018-01-26T12:26:02.398Z,26.20
2018-01-26T12:28:30.138Z,28.17
2018-01-26T12:30:57.979Z,27.90
2018-01-26T12:33:25.634Z,28.00
2018-01-26T12:35:53.292Z,28.77
2018-01-26T12:38:20.982Z,27.13
2018-01-26T12:40:48.726Z,24.97
2018-01-26T12:43:16.413Z,27.57
2018-01-26T12:45:49.235Z,27.70
2018-01-26T12:48:16.904Z,26.50
2018-01-26T12:50:44.648Z,25.93
2018-01-26T12:53:12.443Z,23.83
2018-01-26T12:55:40.198Z,25.53
2018-01-26T12:58:08.146Z,26.73
2018-01-26T13:00:35.805Z,27.10
2018-01-26T13:03:03.553Z,26.27
2018-01-26T13:05:31.208Z,25.70
2018-01-26T13:07:58.963Z,22.90
2018-01-26T13:10:26.637Z,22.83
2018-01-26T13:12:54.322Z,23.57
2018-01-26T13:15:22.038Z,23.80
2018-01-26T13:17:49.629Z,21.60
2018-01-26T13:20:17.224Z,22.03
2018-01-26T13:22:44.950Z,22.00
2018-01-26T13:25:12.657Z,22.30
2018-01-26T13:27:40.803Z,23.60
2018-01-26T13:30:08.519Z,24.30
2018-01-26T13:32:36.194Z,23.53
2018-01-26T13:35:04.217Z,21.83
2018-01-26T13:37:32.063Z,21.93
2018-01-26T13:39:59.747Z,21.20
2018-01-26T13:42:27.464Z,22.00
2018-01-26T13:44:55.763Z,20.57
2018-01-26T13:47:23.520Z,23.63
2018-01-26T13:49:51.607Z,20.07
2018-01-26T13:52:19.275Z,22.90
2018-01-26T13:54:47.022Z,20.63
2018-01-26T13:57:15.656Z,22.37
2018-01-26T13:59:43.422Z,23.53
2018-01-26T14:02:11.296Z,20.30
2018-01-26T14:04:38.942Z,21.07
2018-01-26T14:07:06.617Z,22.57
2018-01-26T14:09:34.362Z,22.00
2018-01-26T14:12:02.133Z,23.50
2018-01-26T14:14:29.844Z,23.33
2018-01-26T14:16:57.590Z,22.37
2018-01-26T14:19:25.307Z,22.43
2018-01-26T14:21:53.043Z,24.00
2018-01-26T14:27:02.609Z,23.10
2018-01-26T14:29:30.471Z,19.73
2018-01-26T14:31:58.177Z,21.17
2018-01-26T14:34:25.974Z,20.60
2018-01-26T14:36:53.711Z,21.30
2018-01-26T14:39:21.416Z,19.53
2018-01-26T14:41:49.135Z,18.80
2018-01-26T14:44:16.876Z,22.13
2018-01-26T14:46:44.636Z,19.80
2018-01-26T14:49:12.444Z,20.63
2018-01-26T14:51:40.989Z,19.70
2018-01-26T14:54:08.654Z,17.50
2018-01-26T14:56:36.354Z,18.50
2018-01-26T14:59:04.096Z,19.13
2018-01-26T15:01:31.884Z,21.00
2018-01-26T15:03:59.612Z,19.17
2018-01-26T15:06:27.303Z,18.87
2018-01-26T15:08:55.071Z,18.70
2018-01-26T15:11:22.704Z,18.90
2018-01-26T15:13:50.380Z,19.27
2018-01-26T15:16:18.113Z,20.43
2018-01-26T15:18:45.951Z,19.37
2018-01-26T15:21:13.686Z,19.87
2018-01-26T15:23:41.453Z,18.30
2018-01-26T15:26:09.155Z,17.40
2018-01-26T15:28:36.892Z,18.13
2018-01-26T15:31:04.568Z,20.67
2018-01-26T15:33:32.287Z,19.33
2018-01-26T15:36:00.004Z,19.47
2018-01-26T15:38:27.701Z,19.60
2018-01-26T15:40:55.822Z,20.67
2018-01-26T15:43:23.446Z,23.20
2018-01-26T15:45:51.095Z,18.83
2018-01-26T15:48:18.838Z,18.97
2018-01-26T15:50:46.603Z,18.57
2018-01-26T15:53:14.391Z,17.73
2018-01-26T15:55:42.066Z,18.10
2018-01-26T15:58:09.721Z,19.13
2018-01-26T16:00:37.574Z,18.10
2018-01-26T16:03:05.222Z,17.13
2018-01-26T16:05:32.905Z,16.90
2018-01-26T16:08:00.620Z,19.17
2018-01-26T16:10:28.299Z,20.70
2018-01-26T16:12:56.392Z,18.70
2018-01-26T16:15:24.064Z,15.37
2018-01-26T16:17:52.078Z,15.93
2018-01-26T16:20:19.782Z,17.80
2018-01-26T16:22:47.556Z,17.97
2018-01-26T16:25:15.266Z,18.93
2018-01-26T16:27:42.920Z,18.20
2018-01-26T16:30:10.603Z,18.70
2018-01-26T16:32:38.619Z,15.53
2018-01-26T16:35:06.318Z,16.50
2018-01-26T16:37:34.026Z,15.50
2018-01-26T16:40:01.730Z,15.17
2018-01-26T16:42:29.443Z,16.67
2018-01-26T16:44:57.224Z,16.90
2018-01-26T16:47:24.880Z,15.20
2018-01-26T16:49:52.599Z,17.60
2018-01-26T16:52:20.282Z,19.63
2018-01-26T16:54:47.933Z,18.37
2018-01-26T16:57:15.620Z,15.93
2018-01-26T16:59:43.253Z,16.00
2018-01-26T17:02:10.878Z,16.47
2018-01-26T17:04:38.541Z,15.10
2018-01-26T17:07:06.329Z,17.20
2018-01-26T17:09:34.106Z,17.70
2018-01-26T17:12:01.837Z,17.33
2018-01-26T17:14:29.579Z,15.63
2018-01-26T17:16:57.892Z,17.57
2018-01-26T17:19:25.733Z,16.80
2018-01-26T17:21:53.493Z,16.13
2018-01-26T17:24:21.278Z,15.87
2018-01-26T17:26:49.156Z,14.80
2018-01-26T17:29:16.914Z,16.37
2018-01-26T17:31:45.068Z,16.00
2018-01-26T17:34:12.744Z,15.23
2018-01-26T17:36:40.428Z,17.40
2018-01-26T17:39:08.168Z,16.03
2018-01-26T17:41:36.160Z,15.63
2018-01-26T17:44:03.906Z,14.80
2018-01-26T17:46:31.587Z,17.27
2018-01-26T17:48:59.543Z,15.60
2018-01-26T17:51:27.196Z,16.70
2018-01-26T17:53:57.867Z,15.00
2018-01-26T17:56:25.624Z,17.87
2018-01-26T17:58:53.329Z,16.90
2018-01-26T18:01:20.984Z,16.30
2018-01-26T18:03:48.844Z,16.77
2018-01-26T18:06:16.649Z,15.33
2018-01-26T18:08:44.373Z,16.50
2018-01-26T18:11:12.041Z,16.40
2018-01-26T18:13:39.893Z,16.50
2018-01-26T18:16:07.609Z,16.33
2018-01-26T18:18:37.134Z,14.87
2018-01-26T18:21:04.879Z,17.27
2018-01-26T18:23:32.541Z,27.43
2018-01-26T18:26:01.155Z,20.03
2018-01-26T18:28:28.827Z,31.17
2018-01-26T18:30:56.558Z,52.13
2018-01-26T18:33:26.075Z,29.63
2018-01-26T18:35:54.325Z,21.50
2018-01-26T18:38:22.690Z,16.90
2018-01-26T18:40:51.212Z,17.20
2018-01-26T18:43:18.938Z,21.03
2018-01-26T18:45:47.089Z,19.90
2018-01-26T18:48:15.252Z,18.00
2018-01-26T18:50:42.940Z,18.93
2018-01-26T18:53:11.265Z,20.23
2018-01-26T18:55:40.050Z,26.63
2018-01-26T18:58:07.702Z,23.30
2018-01-26T19:00:35.370Z,22.80
2018-01-26T19:03:03.070Z,21.87
2018-01-26T19:05:31.704Z,18.73
2018-01-26T19:07:59.369Z,17.73
2018-01-26T19:10:27.854Z,17.73
2018-01-26T19:12:55.550Z,19.50
2018-01-26T19:15:23.198Z,17.77
2018-01-26T19:17:53.893Z,20.60
2018-01-26T19:20:21.929Z,19.77
2018-01-26T19:22:49.577Z,21.63
2018-01-26T19:25:17.246Z,21.00
2018-01-26T19:27:44.956Z,21.23
2018-01-26T19:30:12.714Z,22.07
2018-01-26T19:32:40.379Z,22.40
2018-01-26T19:35:08.056Z,20.50
2018-01-26T19:37:35.735Z,21.73
2018-01-26T19:40:03.616Z,21.03
2018-01-26T19:42:31.380Z,21.87
2018-01-26T19:44:59.057Z,21.17
2018-01-26T19:47:27.087Z,19.77
2018-01-26T19:49:54.772Z,21.43
2018-01-26T19:52:22.440Z,20.33
2018-01-26T19:54:50.483Z,27.50
2018-01-26T19:57:18.137Z,25.07
2018-01-26T19:59:45.823Z,24.73
2018-01-26T20:02:13.543Z,24.17
2018-01-26T20:04:46.812Z,19.03
2018-01-26T20:07:30.197Z,21.27
2018-01-26T20:09:58.277Z,20.60
2018-01-26T20:12:26.055Z,22.13
2018-01-26T20:14:53.763Z,22.20
2018-01-26T20:17:21.407Z,19.40
2018-01-26T20:19:49.067Z,19.73
2018-01-26T20:22:16.781Z,21.43
2018-01-26T20:24:44.403Z,22.27
2018-01-26T20:27:12.099Z,22.37
2018-01-26T20:29:39.832Z,21.40
2018-01-26T20:32:07.549Z,23.60
2018-01-26T20:34:35.290Z,23.97
2018-01-26T20:37:03.024Z,21.20
2018-01-26T20:39:30.827Z,22.10
2018-01-26T20:41:58.561Z,23.17
2018-01-26T20:44:26.299Z,23.37
2018-01-26T20:46:54.060Z,24.17
2018-01-26T20:49:21.856Z,24.90
2018-01-26T20:51:49.613Z,24.10
2018-01-26T20:54:17.290Z,28.20
2018-01-26T20:56:45.023Z,22.87
2018-01-26T20:59:13.061Z,24.97
2018-01-26T21:01:40.774Z,28.30
2018-01-26T21:04:08.399Z,28.83
2018-01-26T21:06:36.116Z,27.57
2018-01-26T21:09:04.009Z,28.33
2018-01-26T21:11:31.719Z,26.47
2018-01-26T21:13:59.618Z,28.57
2018-01-26T21:16:27.421Z,26.10
2018-01-26T21:18:55.125Z,25.73
2018-01-26T21:21:23.076Z,28.10
2018-01-26T21:23:50.784Z,26.37
2018-01-26T21:26:18.490Z,29.33
2018-01-26T21:28:46.180Z,26.17
2018-01-26T21:31:13.839Z,27.73
2018-01-26T21:33:41.866Z,25.90
2018-01-26T21:36:09.552Z,29.77
2018-01-26T21:38:37.152Z,27.37
2018-01-26T21:41:05.128Z,26.60
2018-01-26T21:43:32.796Z,29.27
2018-01-26T21:46:00.474Z,30.13
2018-01-26T21:48:28.161Z,29.30
2018-01-26T21:50:56.124Z,33.57
2018-01-26T21:53:23.759Z,31.53
2018-01-26T21:55:51.379Z,30.70
2018-01-26T21:58:19.076Z,31.60
2018-01-26T22:00:46.856Z,31.27
2018-01-26T22:03:14.572Z,30.10
2018-01-26T22:05:42.243Z,30.70
2018-01-26T22:08:09.947Z,29.40
2018-01-26T22:10:38.075Z,29.77
2018-01-26T22:13:05.740Z,33.30
2018-01-26T22:15:33.684Z,30.83
2018-01-26T22:18:01.469Z,29.30
2018-01-26T22:20:29.504Z,30.23
2018-01-26T22:22:57.140Z,28.60
2018-01-26T22:25:24.862Z,29.20
2018-01-26T22:27:52.501Z,28.50
2018-01-26T22:30:20.193Z,33.83
2018-01-26T22:32:47.873Z,30.93
2018-01-26T22:35:15.561Z,32.10
2018-01-26T22:37:43.654Z,30.00
2018-01-26T22:40:11.355Z,30.60
2018-01-26T22:42:39.062Z,32.97
2018-01-26T22:45:06.715Z,31.47
2018-01-26T22:47:34.425Z,31.07
2018-01-26T22:50:02.659Z,29.47
2018-01-26T22:52:30.322Z,31.30
2018-01-26T22:54:57.978Z,31.03
2018-01-26T22:57:26.717Z,32.00
2018-01-26T22:59:54.628Z,31.13
2018-01-26T23:02:22.292Z,30.67
2018-01-26T23:04:49.941Z,31.87
2018-01-26T23:07:17.569Z,30.37
2018-01-26T23:09:45.514Z,31.80
2018-01-26T23:12:13.195Z,32.13
2018-01-26T23:14:40.839Z,29.17
2018-01-26T23:17:08.483Z,30.80
2018-01-26T23:19:36.129Z,30.60
2018-01-26T23:22:03.828Z,27.90
2018-01-26T23:24:31.511Z,28.53
2018-01-26T23:26:59.192Z,28.07
2018-01-26T23:29:26.854Z,28.10
2018-01-26T23:31:54.567Z,30.80
2018-01-26T23:34:22.663Z,30.23
2018-01-26T23:36:50.331Z,29.90
2018-01-26T23:39:18.302Z,29.90
2018-01-26T23:41:45.983Z,30.47
2018-01-26T23:44:13.790Z,29.60
2018-01-26T23:46:41.665Z,30.73
2018-01-26T23:49:09.375Z,31.43
2018-01-26T23:51:37.058Z,32.13
2018-01-26T23:54:04.693Z,29.13
2018-01-26T23:56:32.416Z,30.40
2018-01-26T23:59:00.083Z,31.27
